General Aviation Weather

Text Reports

Enter one or more of the following location identifiers separated by a space:

Zip Code, Four-Character ICAO or Three-Character IATA airport codes.

METAR - Aviation Routine Weather Report
KTMK - Tillamook, Oregon
Updated at 11:15 PM GMT on March 01, 2015 (4:15 PM MST):
METAR KTMK 012315Z AUTO 31012KT 10SM CLR 11/06 A3012 RMK AO2
TAF - Terminal Area Forecast
KTMK - Tillamook, Oregon
Updated at 11:15 PM GMT on March 01, 2015 (4:15 PM MST):
No TAF is currently available for this location.
Decoded:
No decoded TAF is available.
PIREP - Pilot Weather Report
KTMK - Tillamook, Oregon
Updated at 11:15 PM GMT on March 01, 2015 (4:15 PM MST):
No PIREP is currently available for this location.
AIRMET - Airmens Meteorological Information
KTMK - Tillamook, Oregon
Updated at 11:15 PM GMT on March 01, 2015 (4:15 PM MST):
No AIRMET is currently available for this location.
SIGMET - Significant Meteorological Information
KTMK - Tillamook, Oregon
Updated at 11:15 PM GMT on March 01, 2015 (4:15 PM MST):
No SIGMET is currently available for this location.
NOTAM - Notice to Airmen
KTMK - Tillamook, Oregon
Updated at 11:15 PM GMT on March 01, 2015 (4:15 PM MST):
No NOTAM is currently available for this location.
Forecast Area
KTMK - Tillamook, Oregon
Updated at 11:15 PM GMT on March 01, 2015 (4:15 PM MST):
No NOTAM is currently available for this location.
Aviation Weather Maps